sensor_id;sensor_type;location;lat;lon;timestamp;temperature;humidity
54930;DHT22;40833;53.238;6.576;2022-09-06T00:01:23;20.10;99.90
54930;DHT22;40833;53.238;6.576;2022-09-06T00:03:50;20.00;99.90
54930;DHT22;40833;53.238;6.576;2022-09-06T00:06:17;20.00;99.90
54930;DHT22;40833;53.238;6.576;2022-09-06T00:08:44;20.00;99.90
54930;DHT22;40833;53.238;6.576;2022-09-06T00:11:11;19.90;99.90
54930;DHT22;40833;53.238;6.576;2022-09-06T00:13:37;19.90;99.90
54930;DHT22;40833;53.238;6.576;2022-09-06T00:16:17;19.90;99.90
54930;DHT22;40833;53.238;6.576;2022-09-06T00:18:44;19.90;99.90
54930;DHT22;40833;53.238;6.576;2022-09-06T00:21:18;19.80;99.90
54930;DHT22;40833;53.238;6.576;2022-09-06T00:23:44;19.80;99.90
54930;DHT22;40833;53.238;6.576;2022-09-06T00:26:10;19.80;99.90
54930;DHT22;40833;53.238;6.576;2022-09-06T00:28:37;19.70;99.90
54930;DHT22;40833;53.238;6.576;2022-09-06T00:31:16;19.70;99.90
54930;DHT22;40833;53.238;6.576;2022-09-06T00:33:43;19.70;99.90
54930;DHT22;40833;53.238;6.576;2022-09-06T00:36:09;19.60;99.90
54930;DHT22;40833;53.238;6.576;2022-09-06T00:38:36;19.60;99.90
54930;DHT22;40833;53.238;6.576;2022-09-06T00:41:02;19.60;99.90
54930;DHT22;40833;53.238;6.576;2022-09-06T00:43:28;19.60;99.90
54930;DHT22;40833;53.238;6.576;2022-09-06T00:45:55;19.50;99.90
54930;DHT22;40833;53.238;6.576;2022-09-06T00:48:21;19.50;99.90
54930;DHT22;40833;53.238;6.576;2022-09-06T00:50:49;19.50;99.90
54930;DHT22;40833;53.238;6.576;2022-09-06T00:53:16;19.40;99.90
54930;DHT22;40833;53.238;6.576;2022-09-06T00:55:43;19.40;99.90
54930;DHT22;40833;53.238;6.576;2022-09-06T00:58:09;19.40;99.90
54930;DHT22;40833;53.238;6.576;2022-09-06T01:00:35;19.40;99.90
54930;DHT22;40833;53.238;6.576;2022-09-06T01:03:01;19.30;99.90
54930;DHT22;40833;53.238;6.576;2022-09-06T01:05:36;19.30;99.90
54930;DHT22;40833;53.238;6.576;2022-09-06T01:16:24;19.20;99.90
54930;DHT22;40833;53.238;6.576;2022-09-06T01:21:44;19.20;99.90
54930;DHT22;40833;53.238;6.576;2022-09-06T01:30:05;19.10;99.90
54930;DHT22;40833;53.238;6.576;2022-09-06T01:37:57;19.20;99.90
54930;DHT22;40833;53.238;6.576;2022-09-06T01:40:24;19.10;99.90
54930;DHT22;40833;53.238;6.576;2022-09-06T01:42:52;19.10;99.90
54930;DHT22;40833;53.238;6.576;2022-09-06T01:45:29;19.10;99.90
54930;DHT22;40833;53.238;6.576;2022-09-06T01:51:33;19.10;99.90
54930;DHT22;40833;53.238;6.576;2022-09-06T01:54:15;19.10;99.90
54930;DHT22;40833;53.238;6.576;2022-09-06T01:59:45;19.00;99.90
54930;DHT22;40833;53.238;6.576;2022-09-06T02:05:00;19.00;99.90
54930;DHT22;40833;53.238;6.576;2022-09-06T02:07:31;19.00;99.90
54930;DHT22;40833;53.238;6.576;2022-09-06T02:12:40;19.00;99.90
54930;DHT22;40833;53.238;6.576;2022-09-06T02:15:10;18.90;99.90
54930;DHT22;40833;53.238;6.576;2022-09-06T02:17:44;18.90;99.90
54930;DHT22;40833;53.238;6.576;2022-09-06T02:20:21;18.90;99.90
54930;DHT22;40833;53.238;6.576;2022-09-06T02:22:50;18.90;99.90
54930;DHT22;40833;53.238;6.576;2022-09-06T02:25:22;18.90;99.90
54930;DHT22;40833;53.238;6.576;2022-09-06T02:27:49;18.90;99.90
54930;DHT22;40833;53.238;6.576;2022-09-06T02:30:15;18.90;99.90
54930;DHT22;40833;53.238;6.576;2022-09-06T02:32:49;18.90;99.90
54930;DHT22;40833;53.238;6.576;2022-09-06T02:35:17;18.80;99.90
54930;DHT22;40833;53.238;6.576;2022-09-06T02:37:43;18.80;99.90
54930;DHT22;40833;53.238;6.576;2022-09-06T02:40:10;18.80;99.90
54930;DHT22;40833;53.238;6.576;2022-09-06T02:42:36;18.80;99.90
54930;DHT22;40833;53.238;6.576;2022-09-06T02:45:02;18.80;99.90
54930;DHT22;40833;53.238;6.576;2022-09-06T02:47:29;18.80;99.90
54930;DHT22;40833;53.238;6.576;2022-09-06T02:49:55;18.80;99.90
54930;DHT22;40833;53.238;6.576;2022-09-06T02:52:21;18.80;99.90
54930;DHT22;40833;53.238;6.576;2022-09-06T02:54:46;18.70;99.90
54930;DHT22;40833;53.238;6.576;2022-09-06T02:57:12;18.70;99.90
54930;DHT22;40833;53.238;6.576;2022-09-06T02:59:38;18.70;99.90
54930;DHT22;40833;53.238;6.576;2022-09-06T03:02:04;18.60;99.90
54930;DHT22;40833;53.238;6.576;2022-09-06T03:04:29;18.60;99.90
54930;DHT22;40833;53.238;6.576;2022-09-06T03:06:56;18.60;99.90
54930;DHT22;40833;53.238;6.576;2022-09-06T03:09:21;18.60;99.90
54930;DHT22;40833;53.238;6.576;2022-09-06T03:11:47;18.50;99.90
54930;DHT22;40833;53.238;6.576;2022-09-06T03:14:13;18.50;99.90
54930;DHT22;40833;53.238;6.576;2022-09-06T03:16:40;18.50;99.90
54930;DHT22;40833;53.238;6.576;2022-09-06T03:19:06;18.50;99.90
54930;DHT22;40833;53.238;6.576;2022-09-06T03:21:31;18.50;99.90
54930;DHT22;40833;53.238;6.576;2022-09-06T03:23:57;18.50;99.90
54930;DHT22;40833;53.238;6.576;2022-09-06T03:26:24;18.40;99.90
54930;DHT22;40833;53.238;6.576;2022-09-06T03:28:49;18.40;99.90
54930;DHT22;40833;53.238;6.576;2022-09-06T03:31:15;18.40;99.90
54930;DHT22;40833;53.238;6.576;2022-09-06T03:33:41;18.40;99.90
54930;DHT22;40833;53.238;6.576;2022-09-06T03:36:07;18.30;99.90
54930;DHT22;40833;53.238;6.576;2022-09-06T03:38:33;18.30;99.90
54930;DHT22;40833;53.238;6.576;2022-09-06T03:40:58;18.30;99.90
54930;DHT22;40833;53.238;6.576;2022-09-06T03:43:26;18.30;99.90
54930;DHT22;40833;53.238;6.576;2022-09-06T03:45:54;18.30;99.90
54930;DHT22;40833;53.238;6.576;2022-09-06T03:48:22;18.30;99.90
54930;DHT22;40833;53.238;6.576;2022-09-06T03:50:51;18.30;99.90
54930;DHT22;40833;53.238;6.576;2022-09-06T03:53:19;18.30;99.90
54930;DHT22;40833;53.238;6.576;2022-09-06T03:55:50;18.20;99.90
54930;DHT22;40833;53.238;6.576;2022-09-06T03:58:17;18.20;99.90
54930;DHT22;40833;53.238;6.576;2022-09-06T04:00:43;18.30;99.90
54930;DHT22;40833;53.238;6.576;2022-09-06T04:03:09;18.20;99.90
54930;DHT22;40833;53.238;6.576;2022-09-06T04:05:35;18.10;99.90
54930;DHT22;40833;53.238;6.576;2022-09-06T04:08:01;18.10;99.90
54930;DHT22;40833;53.238;6.576;2022-09-06T04:10:27;18.10;99.90
54930;DHT22;40833;53.238;6.576;2022-09-06T04:12:53;18.10;99.90
54930;DHT22;40833;53.238;6.576;2022-09-06T04:15:19;18.10;99.90
54930;DHT22;40833;53.238;6.576;2022-09-06T04:17:45;18.10;99.90
54930;DHT22;40833;53.238;6.576;2022-09-06T04:20:12;18.10;99.90
54930;DHT22;40833;53.238;6.576;2022-09-06T04:22:38;18.10;99.90
54930;DHT22;40833;53.238;6.576;2022-09-06T04:25:05;18.10;99.90
54930;DHT22;40833;53.238;6.576;2022-09-06T04:27:30;18.10;99.90
54930;DHT22;40833;53.238;6.576;2022-09-06T04:29:56;18.10;99.90
54930;DHT22;40833;53.238;6.576;2022-09-06T04:32:22;18.10;99.90
54930;DHT22;40833;53.238;6.576;2022-09-06T04:34:48;18.10;99.90
54930;DHT22;40833;53.238;6.576;2022-09-06T04:37:14;18.00;99.90
54930;DHT22;40833;53.238;6.576;2022-09-06T04:39:47;18.00;99.90
54930;DHT22;40833;53.238;6.576;2022-09-06T04:42:14;18.00;99.90
54930;DHT22;40833;53.238;6.576;2022-09-06T04:44:40;18.10;99.90
54930;DHT22;40833;53.238;6.576;2022-09-06T04:47:09;18.10;99.90
54930;DHT22;40833;53.238;6.576;2022-09-06T04:49:39;18.10;99.90
54930;DHT22;40833;53.238;6.576;2022-09-06T04:52:05;18.10;99.90
54930;DHT22;40833;53.238;6.576;2022-09-06T04:54:30;18.10;99.90
54930;DHT22;40833;53.238;6.576;2022-09-06T04:56:56;18.00;99.90
54930;DHT22;40833;53.238;6.576;2022-09-06T04:59:22;18.00;99.90
54930;DHT22;40833;53.238;6.576;2022-09-06T05:01:47;18.00;99.90
54930;DHT22;40833;53.238;6.576;2022-09-06T05:04:13;18.00;99.90
54930;DHT22;40833;53.238;6.576;2022-09-06T05:06:39;18.00;99.90
54930;DHT22;40833;53.238;6.576;2022-09-06T05:09:06;18.00;99.90
54930;DHT22;40833;53.238;6.576;2022-09-06T05:11:32;18.00;99.90
54930;DHT22;40833;53.238;6.576;2022-09-06T05:13:57;18.00;99.90
54930;DHT22;40833;53.238;6.576;2022-09-06T05:16:23;18.00;99.90
54930;DHT22;40833;53.238;6.576;2022-09-06T05:18:48;18.00;99.90
54930;DHT22;40833;53.238;6.576;2022-09-06T05:21:14;18.00;99.90
54930;DHT22;40833;53.238;6.576;2022-09-06T05:23:40;18.00;99.90
54930;DHT22;40833;53.238;6.576;2022-09-06T05:26:06;18.00;99.90
54930;DHT22;40833;53.238;6.576;2022-09-06T05:28:32;18.00;99.90
54930;DHT22;40833;53.238;6.576;2022-09-06T05:31:10;18.00;99.90
54930;DHT22;40833;53.238;6.576;2022-09-06T05:33:36;18.00;99.90
54930;DHT22;40833;53.238;6.576;2022-09-06T05:36:03;18.00;99.90
54930;DHT22;40833;53.238;6.576;2022-09-06T05:38:29;17.90;99.90
54930;DHT22;40833;53.238;6.576;2022-09-06T05:40:55;18.00;99.90
54930;DHT22;40833;53.238;6.576;2022-09-06T05:43:20;18.00;99.90
54930;DHT22;40833;53.238;6.576;2022-09-06T05:45:46;18.00;99.90
54930;DHT22;40833;53.238;6.576;2022-09-06T05:48:12;18.00;99.90
54930;DHT22;40833;53.238;6.576;2022-09-06T05:50:37;18.10;99.90
54930;DHT22;40833;53.238;6.576;2022-09-06T05:53:03;18.00;99.90
54930;DHT22;40833;53.238;6.576;2022-09-06T05:55:29;18.10;99.90
54930;DHT22;40833;53.238;6.576;2022-09-06T05:57:54;18.10;99.90
54930;DHT22;40833;53.238;6.576;2022-09-06T06:00:20;18.10;99.90
54930;DHT22;40833;53.238;6.576;2022-09-06T06:02:47;18.10;99.90
54930;DHT22;40833;53.238;6.576;2022-09-06T06:05:13;18.10;99.90
54930;DHT22;40833;53.238;6.576;2022-09-06T06:07:39;18.10;99.90
54930;DHT22;40833;53.238;6.576;2022-09-06T06:10:05;18.20;99.90
54930;DHT22;40833;53.238;6.576;2022-09-06T06:12:31;18.20;99.90
54930;DHT22;40833;53.238;6.576;2022-09-06T06:14:56;18.20;99.90
54930;DHT22;40833;53.238;6.576;2022-09-06T06:17:22;18.30;99.90
54930;DHT22;40833;53.238;6.576;2022-09-06T06:19:47;18.30;99.90
54930;DHT22;40833;53.238;6.576;2022-09-06T06:22:13;18.40;99.90
54930;DHT22;40833;53.238;6.576;2022-09-06T06:24:39;18.40;99.90
54930;DHT22;40833;53.238;6.576;2022-09-06T06:27:04;18.40;99.90
54930;DHT22;40833;53.238;6.576;2022-09-06T06:29:30;18.40;99.90
54930;DHT22;40833;53.238;6.576;2022-09-06T06:31:56;18.40;99.90
54930;DHT22;40833;53.238;6.576;2022-09-06T06:34:21;18.50;99.90
54930;DHT22;40833;53.238;6.576;2022-09-06T06:36:47;18.50;99.90
54930;DHT22;40833;53.238;6.576;2022-09-06T06:39:13;18.50;99.90
54930;DHT22;40833;53.238;6.576;2022-09-06T06:41:39;18.60;99.90
54930;DHT22;40833;53.238;6.576;2022-09-06T06:44:05;18.60;99.90
54930;DHT22;40833;53.238;6.576;2022-09-06T06:46:36;18.60;99.90
54930;DHT22;40833;53.238;6.576;2022-09-06T06:49:02;18.60;99.90
54930;DHT22;40833;53.238;6.576;2022-09-06T06:51:29;18.60;99.90
54930;DHT22;40833;53.238;6.576;2022-09-06T06:53:55;18.60;99.90
54930;DHT22;40833;53.238;6.576;2022-09-06T06:56:31;18.70;99.90
54930;DHT22;40833;53.238;6.576;2022-09-06T06:58:59;18.70;99.90
54930;DHT22;40833;53.238;6.576;2022-09-06T07:01:26;18.70;99.90
54930;DHT22;40833;53.238;6.576;2022-09-06T07:03:52;18.70;99.90
54930;DHT22;40833;53.238;6.576;2022-09-06T07:06:19;18.80;99.90
54930;DHT22;40833;53.238;6.576;2022-09-06T07:08:45;18.80;99.90
54930;DHT22;40833;53.238;6.576;2022-09-06T07:11:13;18.80;99.90
54930;DHT22;40833;53.238;6.576;2022-09-06T07:13:39;18.90;99.90
54930;DHT22;40833;53.238;6.576;2022-09-06T07:16:19;18.90;99.90
54930;DHT22;40833;53.238;6.576;2022-09-06T07:18:45;18.90;99.90
54930;DHT22;40833;53.238;6.576;2022-09-06T07:21:14;19.00;99.90
54930;DHT22;40833;53.238;6.576;2022-09-06T07:23:40;19.10;99.90
54930;DHT22;40833;53.238;6.576;2022-09-06T07:26:06;19.10;99.90
54930;DHT22;40833;53.238;6.576;2022-09-06T07:28:32;19.20;99.90
54930;DHT22;40833;53.238;6.576;2022-09-06T07:30:58;19.20;99.90
54930;DHT22;40833;53.238;6.576;2022-09-06T07:33:25;19.30;99.90
54930;DHT22;40833;53.238;6.576;2022-09-06T07:35:59;19.30;99.90
54930;DHT22;40833;53.238;6.576;2022-09-06T07:38:26;19.30;99.90
54930;DHT22;40833;53.238;6.576;2022-09-06T07:40:57;19.30;99.90
54930;DHT22;40833;53.238;6.576;2022-09-06T07:43:24;19.20;99.90
54930;DHT22;40833;53.238;6.576;2022-09-06T07:46:06;19.10;99.90
54930;DHT22;40833;53.238;6.576;2022-09-06T07:48:34;19.10;99.90
54930;DHT22;40833;53.238;6.576;2022-09-06T07:51:12;19.10;99.90
54930;DHT22;40833;53.238;6.576;2022-09-06T07:53:39;19.10;99.90
54930;DHT22;40833;53.238;6.576;2022-09-06T07:56:07;19.10;99.90
54930;DHT22;40833;53.238;6.576;2022-09-06T07:58:33;19.10;99.90
54930;DHT22;40833;53.238;6.576;2022-09-06T08:01:27;19.10;99.90
54930;DHT22;40833;53.238;6.576;2022-09-06T08:04:04;19.10;99.90
54930;DHT22;40833;53.238;6.576;2022-09-06T08:06:33;19.10;99.90
54930;DHT22;40833;53.238;6.576;2022-09-06T08:08:59;19.20;99.90
54930;DHT22;40833;53.238;6.576;2022-09-06T08:11:27;19.30;99.90
54930;DHT22;40833;53.238;6.576;2022-09-06T08:13:54;19.40;99.90
54930;DHT22;40833;53.238;6.576;2022-09-06T08:16:20;19.40;99.90
54930;DHT22;40833;53.238;6.576;2022-09-06T08:18:51;19.50;99.90
54930;DHT22;40833;53.238;6.576;2022-09-06T08:21:17;19.60;99.90
54930;DHT22;40833;53.238;6.576;2022-09-06T08:23:48;19.70;99.90
54930;DHT22;40833;53.238;6.576;2022-09-06T08:26:15;19.80;99.90
54930;DHT22;40833;53.238;6.576;2022-09-06T08:28:41;20.00;99.90
54930;DHT22;40833;53.238;6.576;2022-09-06T08:31:12;20.10;99.90
54930;DHT22;40833;53.238;6.576;2022-09-06T08:33:38;20.20;99.90
54930;DHT22;40833;53.238;6.576;2022-09-06T08:36:05;20.30;99.90
54930;DHT22;40833;53.238;6.576;2022-09-06T08:38:32;20.30;99.90
54930;DHT22;40833;53.238;6.576;2022-09-06T08:43:46;20.40;99.90
54930;DHT22;40833;53.238;6.576;2022-09-06T08:46:15;20.50;99.90
54930;DHT22;40833;53.238;6.576;2022-09-06T08:48:43;20.60;99.90
54930;DHT22;40833;53.238;6.576;2022-09-06T08:53:48;20.80;99.90
54930;DHT22;40833;53.238;6.576;2022-09-06T08:56:22;20.90;99.90
54930;DHT22;40833;53.238;6.576;2022-09-06T08:59:03;21.00;99.90
54930;DHT22;40833;53.238;6.576;2022-09-06T09:01:59;21.10;99.90
54930;DHT22;40833;53.238;6.576;2022-09-06T09:04:27;21.20;99.90
54930;DHT22;40833;53.238;6.576;2022-09-06T09:07:09;21.30;99.90
54930;DHT22;40833;53.238;6.576;2022-09-06T09:09:38;21.40;99.90
54930;DHT22;40833;53.238;6.576;2022-09-06T09:12:04;21.40;99.90
54930;DHT22;40833;53.238;6.576;2022-09-06T09:14:32;21.50;99.90
54930;DHT22;40833;53.238;6.576;2022-09-06T09:17:15;21.50;99.90
54930;DHT22;40833;53.238;6.576;2022-09-06T09:19:44;21.60;99.90
54930;DHT22;40833;53.238;6.576;2022-09-06T09:22:12;21.60;99.90
54930;DHT22;40833;53.238;6.576;2022-09-06T09:24:38;21.80;99.90
54930;DHT22;40833;53.238;6.576;2022-09-06T09:27:08;21.90;99.90
54930;DHT22;40833;53.238;6.576;2022-09-06T09:32:29;22.30;99.90
54930;DHT22;40833;53.238;6.576;2022-09-06T09:35:30;22.60;99.90
54930;DHT22;40833;53.238;6.576;2022-09-06T09:38:02;22.80;99.90
54930;DHT22;40833;53.238;6.576;2022-09-06T09:40:48;23.00;99.90
54930;DHT22;40833;53.238;6.576;2022-09-06T09:43:20;23.10;99.90
54930;DHT22;40833;53.238;6.576;2022-09-06T09:51:26;23.50;99.90
54930;DHT22;40833;53.238;6.576;2022-09-06T09:53:57;23.50;99.90
54930;DHT22;40833;53.238;6.576;2022-09-06T10:01:59;23.20;99.90
54930;DHT22;40833;53.238;6.576;2022-09-06T10:04:37;23.10;99.90
54930;DHT22;40833;53.238;6.576;2022-09-06T10:07:22;23.00;99.90
54930;DHT22;40833;53.238;6.576;2022-09-06T10:15:01;23.10;99.90
54930;DHT22;40833;53.238;6.576;2022-09-06T10:17:30;23.20;99.90
54930;DHT22;40833;53.238;6.576;2022-09-06T10:19:59;23.30;99.90
54930;DHT22;40833;53.238;6.576;2022-09-06T10:22:31;23.40;99.90
54930;DHT22;40833;53.238;6.576;2022-09-06T10:25:20;23.40;99.90
54930;DHT22;40833;53.238;6.576;2022-09-06T10:30:23;23.50;99.90
54930;DHT22;40833;53.238;6.576;2022-09-06T10:33:03;23.50;99.90
54930;DHT22;40833;53.238;6.576;2022-09-06T10:35:31;23.50;99.90
54930;DHT22;40833;53.238;6.576;2022-09-06T10:43:20;23.60;99.90
54930;DHT22;40833;53.238;6.576;2022-09-06T10:45:57;23.70;99.90
54930;DHT22;40833;53.238;6.576;2022-09-06T10:48:31;23.80;99.90
54930;DHT22;40833;53.238;6.576;2022-09-06T10:51:20;23.90;99.90
54930;DHT22;40833;53.238;6.576;2022-09-06T10:53:56;23.90;99.90
54930;DHT22;40833;53.238;6.576;2022-09-06T10:59:20;23.90;99.90
54930;DHT22;40833;53.238;6.576;2022-09-06T11:04:50;24.00;99.90
54930;DHT22;40833;53.238;6.576;2022-09-06T11:07:28;24.10;99.90
54930;DHT22;40833;53.238;6.576;2022-09-06T11:09:58;24.30;99.90
54930;DHT22;40833;53.238;6.576;2022-09-06T11:12:42;24.40;99.90
54930;DHT22;40833;53.238;6.576;2022-09-06T11:15:12;24.50;99.90
54930;DHT22;40833;53.238;6.576;2022-09-06T11:18:03;24.60;99.90
54930;DHT22;40833;53.238;6.576;2022-09-06T11:20:40;24.60;99.90
54930;DHT22;40833;53.238;6.576;2022-09-06T11:28:37;24.90;99.90
54930;DHT22;40833;53.238;6.576;2022-09-06T11:31:08;25.00;99.90
54930;DHT22;40833;53.238;6.576;2022-09-06T11:33:36;25.10;99.90
54930;DHT22;40833;53.238;6.576;2022-09-06T11:36:34;25.30;99.90
54930;DHT22;40833;53.238;6.576;2022-09-06T11:39:02;25.30;99.90
54930;DHT22;40833;53.238;6.576;2022-09-06T15:12:45;25.50;99.90
54930;DHT22;40833;53.238;6.576;2022-09-06T15:15:10;29.70;96.70
54930;DHT22;40833;53.238;6.576;2022-09-06T15:17:36;29.70;96.70
54930;DHT22;40833;53.238;6.576;2022-09-06T15:20:02;29.70;96.50
54930;DHT22;40833;53.238;6.576;2022-09-06T15:22:28;29.70;96.30
54930;DHT22;40833;53.238;6.576;2022-09-06T15:24:54;29.70;96.30
54930;DHT22;40833;53.238;6.576;2022-09-06T15:32:45;29.60;96.20
54930;DHT22;40833;53.238;6.576;2022-09-06T15:35:11;29.40;96.40
54930;DHT22;40833;53.238;6.576;2022-09-06T15:37:36;29.50;96.40
54930;DHT22;40833;53.238;6.576;2022-09-06T15:40:02;29.60;96.30
54930;DHT22;40833;53.238;6.576;2022-09-06T15:42:28;29.70;96.40
54930;DHT22;40833;53.238;6.576;2022-09-06T15:44:53;29.90;96.40
54930;DHT22;40833;53.238;6.576;2022-09-06T15:47:19;29.90;96.10
54930;DHT22;40833;53.238;6.576;2022-09-06T15:49:45;30.00;96.20
54930;DHT22;40833;53.238;6.576;2022-09-06T15:54:47;30.10;96.30
54930;DHT22;40833;53.238;6.576;2022-09-06T15:57:31;30.10;95.90
54930;DHT22;40833;53.238;6.576;2022-09-06T15:59:56;30.00;95.80
54930;DHT22;40833;53.238;6.576;2022-09-06T16:02:22;29.90;95.90
54930;DHT22;40833;53.238;6.576;2022-09-06T16:04:48;29.70;96.00
54930;DHT22;40833;53.238;6.576;2022-09-06T16:10:58;29.50;96.30
54930;DHT22;40833;53.238;6.576;2022-09-06T16:13:31;29.40;96.90
54930;DHT22;40833;53.238;6.576;2022-09-06T16:15:58;29.40;97.20
54930;DHT22;40833;53.238;6.576;2022-09-06T16:18:24;29.20;97.50
54930;DHT22;40833;53.238;6.576;2022-09-06T16:20:50;28.90;97.70
54930;DHT22;40833;53.238;6.576;2022-09-06T16:23:16;28.80;98.00
54930;DHT22;40833;53.238;6.576;2022-09-06T16:25:52;28.70;98.20
54930;DHT22;40833;53.238;6.576;2022-09-06T16:28:18;28.60;98.50
54930;DHT22;40833;53.238;6.576;2022-09-06T16:30:44;28.50;98.70
54930;DHT22;40833;53.238;6.576;2022-09-06T16:33:11;28.30;98.60
54930;DHT22;40833;53.238;6.576;2022-09-06T16:35:41;28.30;98.80
54930;DHT22;40833;53.238;6.576;2022-09-06T16:38:07;28.20;99.00
54930;DHT22;40833;53.238;6.576;2022-09-06T16:40:43;28.00;99.10
54930;DHT22;40833;53.238;6.576;2022-09-06T16:43:09;28.00;99.40
54930;DHT22;40833;53.238;6.576;2022-09-06T16:45:35;28.00;99.30
54930;DHT22;40833;53.238;6.576;2022-09-06T16:48:01;27.90;99.40
54930;DHT22;40833;53.238;6.576;2022-09-06T17:12:51;27.80;99.60
54930;DHT22;40833;53.238;6.576;2022-09-06T17:15:17;26.40;99.90
54930;DHT22;40833;53.238;6.576;2022-09-06T17:17:43;26.20;99.90
54930;DHT22;40833;53.238;6.576;2022-09-06T17:20:09;26.20;99.90
54930;DHT22;40833;53.238;6.576;2022-09-06T17:22:35;26.20;99.90
54930;DHT22;40833;53.238;6.576;2022-09-06T17:32:02;26.10;99.90
54930;DHT22;40833;53.238;6.576;2022-09-06T17:48:30;26.00;99.90
54930;DHT22;40833;53.238;6.576;2022-09-06T17:50:55;25.60;99.90
54930;DHT22;40833;53.238;6.576;2022-09-06T17:53:28;25.50;99.90
54930;DHT22;40833;53.238;6.576;2022-09-06T17:55:54;25.50;99.90
54930;DHT22;40833;53.238;6.576;2022-09-06T17:58:20;25.50;99.90
54930;DHT22;40833;53.238;6.576;2022-09-06T18:02:49;25.50;99.90
54930;DHT22;40833;53.238;6.576;2022-09-06T18:05:15;25.40;99.90
54930;DHT22;40833;53.238;6.576;2022-09-06T18:07:41;25.30;99.90
54930;DHT22;40833;53.238;6.576;2022-09-06T18:10:07;25.20;99.90
54930;DHT22;40833;53.238;6.576;2022-09-06T18:12:34;25.20;99.90
54930;DHT22;40833;53.238;6.576;2022-09-06T18:15:00;25.10;99.90
54930;DHT22;40833;53.238;6.576;2022-09-06T18:17:27;25.00;99.90
54930;DHT22;40833;53.238;6.576;2022-09-06T18:19:55;25.00;99.90
54930;DHT22;40833;53.238;6.576;2022-09-06T18:22:22;24.90;99.90
54930;DHT22;40833;53.238;6.576;2022-09-06T18:27:13;24.90;99.90
54930;DHT22;40833;53.238;6.576;2022-09-06T18:29:38;24.70;99.90
54930;DHT22;40833;53.238;6.576;2022-09-06T18:32:04;24.60;99.90
54930;DHT22;40833;53.238;6.576;2022-09-06T18:34:32;24.50;99.90
54930;DHT22;40833;53.238;6.576;2022-09-06T18:36:58;24.50;99.90
54930;DHT22;40833;53.238;6.576;2022-09-06T18:39:23;24.40;99.90
54930;DHT22;40833;53.238;6.576;2022-09-06T18:41:49;24.30;99.90
54930;DHT22;40833;53.238;6.576;2022-09-06T18:52:02;24.20;99.90
54930;DHT22;40833;53.238;6.576;2022-09-06T18:54:28;24.00;99.90
54930;DHT22;40833;53.238;6.576;2022-09-06T18:56:54;23.90;99.90
54930;DHT22;40833;53.238;6.576;2022-09-06T18:59:20;23.80;99.90
54930;DHT22;40833;53.238;6.576;2022-09-06T19:01:45;23.80;99.90
54930;DHT22;40833;53.238;6.576;2022-09-06T19:04:11;23.80;99.90
54930;DHT22;40833;53.238;6.576;2022-09-06T19:06:39;23.70;99.90
54930;DHT22;40833;53.238;6.576;2022-09-06T19:09:08;23.60;99.90
54930;DHT22;40833;53.238;6.576;2022-09-06T19:11:35;23.60;99.90
54930;DHT22;40833;53.238;6.576;2022-09-06T19:14:01;23.50;99.90
54930;DHT22;40833;53.238;6.576;2022-09-06T19:16:28;23.50;99.90
54930;DHT22;40833;53.238;6.576;2022-09-06T19:18:59;23.50;99.90
54930;DHT22;40833;53.238;6.576;2022-09-06T19:21:25;23.50;99.90
54930;DHT22;40833;53.238;6.576;2022-09-06T19:23:57;23.40;99.90
54930;DHT22;40833;53.238;6.576;2022-09-06T19:26:25;23.30;99.90
54930;DHT22;40833;53.238;6.576;2022-09-06T19:31:18;23.20;99.90
54930;DHT22;40833;53.238;6.576;2022-09-06T19:33:46;23.10;99.90
54930;DHT22;40833;53.238;6.576;2022-09-06T19:36:12;23.10;99.90
54930;DHT22;40833;53.238;6.576;2022-09-06T19:38:39;23.00;99.90
54930;DHT22;40833;53.238;6.576;2022-09-06T19:41:08;23.00;99.90
54930;DHT22;40833;53.238;6.576;2022-09-06T19:43:34;22.90;99.90
54930;DHT22;40833;53.238;6.576;2022-09-06T19:46:01;22.80;99.90
54930;DHT22;40833;53.238;6.576;2022-09-06T19:48:29;22.80;99.90
54930;DHT22;40833;53.238;6.576;2022-09-06T19:50:59;22.80;99.90
54930;DHT22;40833;53.238;6.576;2022-09-06T19:53:25;22.70;99.90
54930;DHT22;40833;53.238;6.576;2022-09-06T19:55:51;22.70;99.90
54930;DHT22;40833;53.238;6.576;2022-09-06T19:58:16;22.70;99.90
54930;DHT22;40833;53.238;6.576;2022-09-06T20:00:42;22.60;99.90
54930;DHT22;40833;53.238;6.576;2022-09-06T20:03:08;22.60;99.90
54930;DHT22;40833;53.238;6.576;2022-09-06T20:05:34;22.50;99.90
54930;DHT22;40833;53.238;6.576;2022-09-06T20:07:59;22.50;99.90
54930;DHT22;40833;53.238;6.576;2022-09-06T20:10:25;22.50;99.90
54930;DHT22;40833;53.238;6.576;2022-09-06T20:12:51;22.40;99.90
54930;DHT22;40833;53.238;6.576;2022-09-06T20:15:18;22.40;99.90
54930;DHT22;40833;53.238;6.576;2022-09-06T20:17:43;22.30;99.90
54930;DHT22;40833;53.238;6.576;2022-09-06T20:20:09;22.30;99.90
54930;DHT22;40833;53.238;6.576;2022-09-06T20:22:35;22.20;99.90
54930;DHT22;40833;53.238;6.576;2022-09-06T20:25:01;22.20;99.90
54930;DHT22;40833;53.238;6.576;2022-09-06T20:27:26;22.10;99.90
54930;DHT22;40833;53.238;6.576;2022-09-06T20:29:52;22.10;99.90
54930;DHT22;40833;53.238;6.576;2022-09-06T20:32:18;22.10;99.90
54930;DHT22;40833;53.238;6.576;2022-09-06T20:34:43;22.00;99.90
54930;DHT22;40833;53.238;6.576;2022-09-06T20:37:09;22.00;99.90
54930;DHT22;40833;53.238;6.576;2022-09-06T20:39:36;21.90;99.90
54930;DHT22;40833;53.238;6.576;2022-09-06T20:42:02;21.90;99.90
54930;DHT22;40833;53.238;6.576;2022-09-06T20:44:27;21.70;99.90
54930;DHT22;40833;53.238;6.576;2022-09-06T20:46:53;21.80;99.90
54930;DHT22;40833;53.238;6.576;2022-09-06T20:49:19;21.80;99.90
54930;DHT22;40833;53.238;6.576;2022-09-06T20:51:46;21.80;99.90
54930;DHT22;40833;53.238;6.576;2022-09-06T20:54:11;21.70;99.90
54930;DHT22;40833;53.238;6.576;2022-09-06T20:56:40;21.60;99.90
54930;DHT22;40833;53.238;6.576;2022-09-06T20:59:08;21.60;99.90
54930;DHT22;40833;53.238;6.576;2022-09-06T21:01:38;21.60;99.90
54930;DHT22;40833;53.238;6.576;2022-09-06T21:04:05;21.50;99.90
54930;DHT22;40833;53.238;6.576;2022-09-06T21:06:33;21.40;99.90
54930;DHT22;40833;53.238;6.576;2022-09-06T21:09:01;21.40;99.90
54930;DHT22;40833;53.238;6.576;2022-09-06T21:11:26;21.40;99.90
54930;DHT22;40833;53.238;6.576;2022-09-06T21:13:54;21.30;99.90
54930;DHT22;40833;53.238;6.576;2022-09-06T21:16:22;21.30;99.90
54930;DHT22;40833;53.238;6.576;2022-09-06T21:18:51;21.20;99.90
54930;DHT22;40833;53.238;6.576;2022-09-06T21:21:17;21.20;99.90
54930;DHT22;40833;53.238;6.576;2022-09-06T21:23:43;21.20;99.90
54930;DHT22;40833;53.238;6.576;2022-09-06T21:26:11;21.10;99.90
54930;DHT22;40833;53.238;6.576;2022-09-06T21:28:38;21.00;99.90
54930;DHT22;40833;53.238;6.576;2022-09-06T21:33:46;21.00;99.90
54930;DHT22;40833;53.238;6.576;2022-09-06T21:36:20;20.90;99.90
54930;DHT22;40833;53.238;6.576;2022-09-06T21:38:48;20.80;99.90